Terminal Aerodrome Forecast
Issued by NWS Wilmington, NC

Home | Current Version | Previous Version | Text Only | Print | Product List | Glossary On
Versions: 1 2 3 4 5 6 7 8 9 10 11 12 13 14 15 16 17 18 19 20 21 22 23 24 25
000
FTUS42 KILM 231617 AAC
TAFILM
TAF AMD
KILM 231617Z 2316/2412 16006KT 6SM RA BR BKN009
      TEMPO 2318/2321 2SM +SHRA BKN020
     FM232100 23013G24KT 6SM -SHRA VCTS OVC040CB
     FM240200 26010KT P6SM -SHRA VCTS OVC015CB WS020/20040KT
     FM240600 25009KT P6SM OVC015 PROB30 2406/2409 4SM -TSRA
      OVC004CB
     FM240900 26005KT P6SM OVC008 PROB30 2409/2411 4SM -TSRA
      OVC004CB
     FM241100 23007KT P6SM OVC025 PROB30 2411/2412 4SM -TSRA
      OVC015CB=

USA.gov is the U.S. government's official web portal to all federal, state and local government web resources and services.